createdAt,value
2018-02-18T00:00:48.265Z,97314.72
2018-02-18T00:03:14.128Z,97315.09
2018-02-18T00:05:39.998Z,97310.78
2018-02-18T00:08:05.816Z,97310.32
2018-02-18T00:10:31.687Z,97309.86
2018-02-18T00:12:58.710Z,97305.59
2018-02-18T00:15:24.608Z,97313.25
2018-02-18T00:17:54.136Z,97312.09
2018-02-18T00:20:20.009Z,97320.17
2018-02-18T00:22:49.718Z,97317.95
2018-02-18T00:25:15.560Z,97314.47
2018-02-18T00:27:42.612Z,97325.55
2018-02-18T00:30:08.663Z,97324.72
2018-02-18T00:32:37.426Z,97324.77
2018-02-18T00:35:03.291Z,97331.89
2018-02-18T00:37:32.134Z,97329.70
2018-02-18T00:39:57.996Z,97327.19
2018-02-18T00:42:23.854Z,97334.52
2018-02-18T00:44:49.740Z,97333.74
2018-02-18T00:47:15.617Z,97338.05
2018-02-18T00:49:44.607Z,97332.56
2018-02-18T00:52:10.460Z,97345.95
2018-02-18T00:54:39.832Z,97335.90
2018-02-18T00:57:05.679Z,97336.74
2018-02-18T00:59:33.094Z,97335.45
2018-02-18T01:01:58.965Z,97333.14
2018-02-18T01:04:28.138Z,97340.77
2018-02-18T01:06:54.003Z,97339.11
2018-02-18T01:09:23.677Z,97338.89
2018-02-18T01:11:49.500Z,97339.36
2018-02-18T01:14:17.114Z,97343.28
2018-02-18T01:16:42.992Z,97339.91
2018-02-18T01:19:08.860Z,97346.74
2018-02-18T01:21:34.725Z,97342.09
2018-02-18T01:24:00.584Z,97336.78
2018-02-18T01:26:30.356Z,97340.23
2018-02-18T01:28:56.233Z,97345.41
2018-02-18T01:31:25.389Z,97348.87
2018-02-18T01:33:51.255Z,97343.73
2018-02-18T01:36:18.462Z,97352.23
2018-02-18T01:38:44.326Z,97348.82
2018-02-18T01:41:14.277Z,97351.31
2018-02-18T01:43:40.158Z,97357.75
2018-02-18T01:46:09.314Z,97358.20
2018-02-18T01:48:42.965Z,97359.93
2018-02-18T01:51:08.814Z,97361.64
2018-02-18T01:53:34.677Z,97362.09
2018-02-18T01:56:00.545Z,97359.70
2018-02-18T01:58:26.449Z,97356.76
2018-02-18T02:00:52.303Z,97366.41
2018-02-18T02:03:18.143Z,97361.26
2018-02-18T02:05:44.052Z,97367.20
2018-02-18T02:08:09.894Z,97366.34
2018-02-18T02:10:35.762Z,97362.96
2018-02-18T02:13:05.195Z,97364.27
2018-02-18T02:15:31.054Z,97374.48
2018-02-18T02:17:58.672Z,97368.48
2018-02-18T02:20:24.540Z,97376.22
2018-02-18T02:22:53.646Z,97380.00
2018-02-18T02:25:19.489Z,97378.22
2018-02-18T02:27:49.133Z,97384.33
2018-02-18T02:30:14.963Z,97383.70
2018-02-18T02:32:40.826Z,97384.06
2018-02-18T02:35:06.657Z,97385.77
2018-02-18T02:37:32.544Z,97384.07
2018-02-18T02:39:59.426Z,97381.13
2018-02-18T02:42:25.269Z,97378.78
2018-02-18T02:47:21.898Z,97376.16
2018-02-18T02:49:48.849Z,97380.35
2018-02-18T02:52:14.720Z,97374.38
2018-02-18T02:54:43.323Z,97380.28
2018-02-18T02:57:09.185Z,97379.53
2018-02-18T03:02:05.969Z,97375.77
2018-02-18T03:04:33.744Z,97370.61
2018-02-18T03:06:59.614Z,97368.47
2018-02-18T03:09:25.487Z,97378.16
2018-02-18T03:11:51.303Z,97376.82
2018-02-18T03:14:17.187Z,97375.08
2018-02-18T03:16:46.164Z,97376.23
2018-02-18T03:19:12.004Z,97380.52
2018-02-18T03:21:39.507Z,97377.23
2018-02-18T03:24:05.384Z,97382.27
2018-02-18T03:29:02.087Z,97381.84
2018-02-18T03:31:29.006Z,97377.20
2018-02-18T03:33:54.849Z,97384.41
2018-02-18T03:38:51.599Z,97383.62
2018-02-18T03:41:19.272Z,97383.14
2018-02-18T03:43:45.119Z,97377.54
2018-02-18T03:46:10.982Z,97382.28
2018-02-18T03:48:38.387Z,97374.19
2018-02-18T03:51:04.245Z,97376.84
2018-02-18T03:53:30.069Z,97381.22
2018-02-18T03:55:55.931Z,97372.16
2018-02-18T04:00:52.724Z,97376.36
2018-02-18T04:03:20.169Z,97383.67
2018-02-18T04:05:46.038Z,97375.27
2018-02-18T04:08:15.239Z,97382.11
2018-02-18T04:10:41.109Z,97379.55
2018-02-18T04:13:10.508Z,97377.81
2018-02-18T04:15:36.374Z,97383.78
2018-02-18T04:18:03.876Z,97377.77
2018-02-18T04:20:29.729Z,97378.53
2018-02-18T04:22:55.582Z,97380.19
2018-02-18T04:25:21.406Z,97379.37
2018-02-18T04:27:47.235Z,97378.07
2018-02-18T04:30:17.041Z,97382.83
2018-02-18T04:32:42.922Z,97378.04
2018-02-18T04:35:10.270Z,97380.52
2018-02-18T04:37:36.354Z,97381.80
2018-02-18T04:40:05.052Z,97386.52
2018-02-18T04:42:30.912Z,97395.02
2018-02-18T04:44:59.628Z,97395.47
2018-02-18T04:47:25.468Z,97394.97
2018-02-18T04:52:22.246Z,97397.39
2018-02-18T04:54:49.747Z,97392.14
2018-02-18T04:57:15.609Z,97395.46
2018-02-18T04:59:41.503Z,97398.70
2018-02-18T05:02:07.353Z,97401.14
2018-02-18T05:04:33.211Z,97398.52
2018-02-18T05:07:01.010Z,97396.84
2018-02-18T05:09:26.877Z,97393.53
2018-02-18T05:11:55.617Z,97397.86
2018-02-18T05:14:21.528Z,97391.97
2018-02-18T05:16:50.650Z,97388.95
2018-02-18T05:19:16.527Z,97391.47
2018-02-18T05:21:45.529Z,97398.17
2018-02-18T05:24:11.373Z,97397.02
2018-02-18T05:26:40.231Z,97398.67
2018-02-18T05:29:06.914Z,97399.27
2018-02-18T05:31:35.451Z,97395.57
2018-02-18T05:34:01.302Z,97395.93
2018-02-18T05:36:27.158Z,97403.67
2018-02-18T05:38:53.018Z,97403.61
2018-02-18T05:41:18.885Z,97404.45
2018-02-18T05:43:47.787Z,97405.39
2018-02-18T05:46:13.650Z,97415.77
2018-02-18T05:48:41.020Z,97419.39
2018-02-18T05:51:06.871Z,97424.52
2018-02-18T05:53:35.540Z,97423.70
2018-02-18T05:56:01.407Z,97424.52
2018-02-18T05:58:30.928Z,97428.39
2018-02-18T06:00:56.786Z,97432.69
2018-02-18T06:03:26.590Z,97431.70
2018-02-18T06:05:52.449Z,97437.98
2018-02-18T06:08:19.761Z,97442.29
2018-02-18T06:10:45.617Z,97442.57
2018-02-18T06:13:11.482Z,97445.80
2018-02-18T06:15:37.342Z,97443.70
2018-02-18T06:18:03.212Z,97453.48
2018-02-18T06:20:32.314Z,97452.16
2018-02-18T06:22:58.165Z,97455.28
2018-02-18T06:25:27.553Z,97458.78
2018-02-18T06:27:53.423Z,97460.56
2018-02-18T06:30:20.688Z,97464.03
2018-02-18T06:32:46.567Z,97459.75
2018-02-18T06:35:15.162Z,97462.22
2018-02-18T06:37:41.016Z,97460.64
2018-02-18T06:40:10.259Z,97468.41
2018-02-18T06:42:36.108Z,97472.52
2018-02-18T06:45:05.033Z,97473.78
2018-02-18T06:47:30.858Z,97472.52
2018-02-18T06:49:56.708Z,97468.41
2018-02-18T06:52:22.554Z,97474.09
2018-02-18T06:54:48.409Z,97477.16
2018-02-18T06:57:17.746Z,97478.91
2018-02-18T06:59:43.597Z,97479.70
2018-02-18T07:02:13.050Z,97483.41
2018-02-18T07:04:38.903Z,97475.70
2018-02-18T07:07:06.350Z,97469.17
2018-02-18T07:09:32.222Z,97464.50
2018-02-18T07:12:01.531Z,97469.22
2018-02-18T07:14:27.417Z,97464.96
2018-02-18T07:16:56.979Z,97464.44
2018-02-18T07:19:22.819Z,97468.95
2018-02-18T07:21:52.001Z,97468.76
2018-02-18T07:24:17.838Z,97481.30
2018-02-18T07:26:43.718Z,97479.83
2018-02-18T07:29:09.600Z,97477.54
2018-02-18T07:31:35.473Z,97484.45
2018-02-18T07:34:01.965Z,97471.50
2018-02-18T07:36:27.833Z,97479.36
2018-02-18T07:38:56.612Z,97468.73
2018-02-18T07:41:22.505Z,97463.93
2018-02-18T07:46:19.268Z,97467.44
2018-02-18T07:48:46.268Z,97469.95
2018-02-18T07:51:12.119Z,97462.20
2018-02-18T07:53:40.846Z,97463.78
2018-02-18T07:56:06.691Z,97462.60
2018-02-18T07:58:35.331Z,97464.65
2018-02-18T08:01:01.185Z,97464.95
2018-02-18T08:03:27.044Z,97458.02
2018-02-18T08:05:52.899Z,97453.19
2018-02-18T08:08:18.750Z,97456.61
2018-02-18T08:10:48.074Z,97457.47
2018-02-18T08:13:14.002Z,97467.71
2018-02-18T08:15:43.230Z,97472.38
2018-02-18T08:18:09.069Z,97463.80
2018-02-18T08:20:38.159Z,97463.50
2018-02-18T08:23:04.017Z,97454.23
2018-02-18T08:25:31.590Z,97461.70
2018-02-18T08:27:57.422Z,97450.30
2018-02-18T08:30:26.280Z,97446.16
2018-02-18T08:32:52.160Z,97437.99
2018-02-18T08:35:21.220Z,97433.64
2018-02-18T08:37:47.076Z,97425.63
2018-02-18T08:40:12.921Z,97429.84
2018-02-18T08:42:38.787Z,97427.65
2018-02-18T08:45:04.616Z,97432.92
2018-02-18T08:47:34.183Z,97435.98
2018-02-18T08:50:00.042Z,97431.80
2018-02-18T08:52:27.327Z,97433.77
2018-02-18T08:54:53.182Z,97445.59
2018-02-18T08:57:22.532Z,97436.80
2018-02-18T08:59:48.414Z,97436.95
2018-02-18T09:02:17.915Z,97434.19
2018-02-18T09:04:43.748Z,97426.29
2018-02-18T09:07:12.911Z,97429.53
2018-02-18T09:09:38.760Z,97432.13
2018-02-18T09:12:06.206Z,97428.91
2018-02-18T09:14:32.077Z,97421.72
2018-02-18T09:16:57.940Z,97421.08
2018-02-18T09:19:23.801Z,97427.50
2018-02-18T09:21:49.674Z,97420.67
2018-02-18T09:24:18.760Z,97420.15
2018-02-18T09:26:44.610Z,97418.20
2018-02-18T09:29:13.906Z,97418.27
2018-02-18T09:31:39.722Z,97423.95
2018-02-18T09:34:08.930Z,97418.03
2018-02-18T09:36:34.783Z,97425.52
2018-02-18T09:39:02.430Z,97419.09
2018-02-18T09:41:28.302Z,97425.22
2018-02-18T09:43:57.654Z,97420.36
2018-02-18T09:46:23.519Z,97421.95
2018-02-18T09:48:53.089Z,97420.62
2018-02-18T09:51:18.939Z,97416.09
2018-02-18T09:53:44.799Z,97423.27
2018-02-18T09:56:10.654Z,97422.39
2018-02-18T09:58:36.497Z,97425.30
2018-02-18T10:01:03.817Z,97422.57
2018-02-18T10:03:29.667Z,97426.78
2018-02-18T10:05:58.982Z,97426.96
2018-02-18T10:08:24.872Z,97421.42
2018-02-18T10:10:54.063Z,97421.03
2018-02-18T10:13:19.943Z,97423.64
2018-02-18T10:15:48.986Z,97418.11
2018-02-18T10:18:14.822Z,97422.17
2018-02-18T10:20:42.018Z,97417.30
2018-02-18T10:23:07.860Z,97416.91
2018-02-18T10:28:04.561Z,97415.31
2018-02-18T10:30:30.418Z,97420.69
2018-02-18T10:32:56.287Z,97420.14
2018-02-18T10:35:22.136Z,97414.48
2018-02-18T10:37:48.420Z,97417.78
2018-02-18T10:40:14.273Z,97421.19
2018-02-18T10:45:10.943Z,97414.44
2018-02-18T10:47:38.762Z,97415.16
2018-02-18T10:50:04.602Z,97413.17
2018-02-18T10:52:34.361Z,97409.56
2018-02-18T10:55:00.236Z,97410.53
2018-02-18T10:57:29.470Z,97408.09
2018-02-18T10:59:55.333Z,97401.59
2018-02-18T11:02:22.917Z,97394.85
2018-02-18T11:04:48.787Z,97395.05
2018-02-18T11:07:14.642Z,97398.80
2018-02-18T11:09:40.478Z,97395.47
2018-02-18T11:12:06.347Z,97391.12
2018-02-18T11:14:33.621Z,97394.20
2018-02-18T11:16:59.465Z,97394.44
2018-02-18T11:21:56.195Z,97401.59
2018-02-18T11:24:23.932Z,97402.11
2018-02-18T11:26:49.782Z,97398.94
2018-02-18T11:29:19.318Z,97397.37
2018-02-18T11:31:45.142Z,97403.58
2018-02-18T11:34:13.086Z,97400.94
2018-02-18T11:36:38.932Z,97403.20
2018-02-18T11:39:08.211Z,97403.44
2018-02-18T11:41:34.066Z,97403.83
2018-02-18T11:43:59.975Z,97408.02
2018-02-18T11:46:25.816Z,97415.54
2018-02-18T11:48:51.653Z,97404.06
2018-02-18T11:51:18.967Z,97409.33
2018-02-18T11:53:44.807Z,97406.50
2018-02-18T11:56:13.362Z,97406.25
2018-02-18T11:58:39.221Z,97402.57
2018-02-18T12:03:36.040Z,97395.70
2018-02-18T12:06:03.650Z,97396.13
2018-02-18T12:08:29.483Z,97396.72
2018-02-18T12:10:59.157Z,97399.80
2018-02-18T12:13:25.040Z,97391.95
2018-02-18T12:15:54.390Z,97386.86
2018-02-18T12:18:20.231Z,97382.52
2018-02-18T12:20:46.068Z,97383.11
2018-02-18T12:23:11.914Z,97389.83
2018-02-18T12:25:37.787Z,97384.61
2018-02-18T12:28:04.798Z,97381.64
2018-02-18T12:30:30.659Z,97383.88
2018-02-18T12:32:59.898Z,97389.48
2018-02-18T12:35:25.741Z,97390.49
2018-02-18T12:37:55.237Z,97390.75
2018-02-18T12:40:21.117Z,97387.61
2018-02-18T12:42:48.561Z,97383.13
2018-02-18T12:45:14.409Z,97383.83
2018-02-18T12:47:43.731Z,97379.92
2018-02-18T12:50:09.606Z,97380.00
2018-02-18T12:52:39.268Z,97374.13
2018-02-18T12:55:05.109Z,97374.14
2018-02-18T12:57:31.007Z,97372.08
2018-02-18T12:59:56.876Z,97370.70
2018-02-18T13:02:22.734Z,97366.56
2018-02-18T13:04:50.074Z,97363.28
2018-02-18T13:07:15.954Z,97361.06
2018-02-18T13:09:45.539Z,97362.56
2018-02-18T13:12:11.394Z,97367.53
2018-02-18T13:14:40.915Z,97370.42
2018-02-18T13:17:06.788Z,97368.31
2018-02-18T13:19:34.182Z,97368.66
2018-02-18T13:22:00.109Z,97364.77
2018-02-18T13:24:29.405Z,97365.75
2018-02-18T13:26:55.257Z,97368.97
2018-02-18T13:29:24.360Z,97364.95
2018-02-18T13:31:50.203Z,97372.45
2018-02-18T13:34:16.081Z,97370.88
2018-02-18T13:36:41.922Z,97377.95
2018-02-18T13:39:07.785Z,97373.41
2018-02-18T13:41:35.062Z,97363.80
2018-02-18T13:44:00.954Z,97367.77
2018-02-18T13:46:29.934Z,97362.28
2018-02-18T13:48:55.804Z,97362.12
2018-02-18T13:51:24.578Z,97362.40
2018-02-18T13:53:50.436Z,97369.25
2018-02-18T13:56:19.105Z,97378.04
2018-02-18T13:58:44.924Z,97372.05
2018-02-18T14:01:13.536Z,97368.98
2018-02-18T14:03:39.378Z,97366.08
2018-02-18T14:08:36.182Z,97362.75
2018-02-18T14:11:02.026Z,97362.61
2018-02-18T14:13:27.876Z,97356.19
2018-02-18T14:15:53.746Z,97363.36
2018-02-18T14:18:21.166Z,97357.08
2018-02-18T14:20:47.022Z,97360.17
2018-02-18T14:23:16.077Z,97356.23
2018-02-18T14:25:41.951Z,97358.42
2018-02-18T14:28:10.997Z,97364.82
2018-02-18T14:30:36.865Z,97361.45
2018-02-18T14:33:06.186Z,97362.07
2018-02-18T14:35:32.029Z,97357.83
2018-02-18T14:37:59.153Z,97360.84
2018-02-18T14:40:25.022Z,97365.45
2018-02-18T14:43:03.328Z,97361.27
2018-02-18T14:45:41.763Z,97361.75
2018-02-18T14:48:20.325Z,97371.08
2018-02-18T14:50:58.789Z,97366.63
2018-02-18T14:53:36.989Z,97367.16
2018-02-18T14:56:06.637Z,97356.45
2018-02-18T14:58:32.473Z,97360.05
2018-02-18T15:00:58.358Z,97367.25
2018-02-18T15:03:24.215Z,97356.54
2018-02-18T15:05:50.095Z,97364.52
2018-02-18T15:08:15.926Z,97359.87
2018-02-18T15:10:41.818Z,97356.52
2018-02-18T15:13:07.690Z,97365.30
2018-02-18T15:15:33.595Z,97359.52
2018-02-18T15:17:59.472Z,97364.21
2018-02-18T15:20:25.326Z,97372.20
2018-02-18T15:22:51.185Z,97369.39
2018-02-18T15:25:17.045Z,97370.45
2018-02-18T15:27:42.887Z,97369.42
2018-02-18T15:30:08.742Z,97366.88
2018-02-18T15:32:34.598Z,97371.28
2018-02-18T15:35:00.432Z,97366.47
2018-02-18T15:37:26.315Z,97360.23
2018-02-18T15:39:52.186Z,97360.11
2018-02-18T15:42:18.022Z,97354.54
2018-02-18T15:44:43.883Z,97355.38
2018-02-18T15:47:09.732Z,97358.00
2018-02-18T15:49:35.586Z,97357.28
2018-02-18T15:52:01.449Z,97355.63
2018-02-18T15:54:27.324Z,97355.67
2018-02-18T15:56:53.149Z,97358.62
2018-02-18T15:59:19.003Z,97357.55
2018-02-18T16:01:44.838Z,97353.82
2018-02-18T16:04:10.688Z,97350.63
2018-02-18T16:06:36.563Z,97353.88
2018-02-18T16:09:02.464Z,97355.28
2018-02-18T16:11:28.339Z,97346.78
2018-02-18T16:13:54.181Z,97338.62
2018-02-18T16:16:20.025Z,97344.01
2018-02-18T16:18:45.892Z,97344.48
2018-02-18T16:21:11.794Z,97343.15
2018-02-18T16:23:37.648Z,97342.73
2018-02-18T16:26:03.482Z,97339.59
2018-02-18T16:28:29.321Z,97338.19
2018-02-18T16:30:55.186Z,97343.85
2018-02-18T16:33:21.044Z,97339.77
2018-02-18T16:35:46.912Z,97341.73
2018-02-18T16:38:12.785Z,97339.34
2018-02-18T16:40:38.648Z,97344.16
2018-02-18T16:43:04.476Z,97343.40
2018-02-18T16:45:30.315Z,97343.00
2018-02-18T16:47:56.199Z,97350.66
2018-02-18T16:50:22.072Z,97350.30
2018-02-18T16:52:47.980Z,97353.30
2018-02-18T16:55:13.801Z,97351.42
2018-02-18T16:57:39.676Z,97338.12
2018-02-18T17:00:05.639Z,97342.98
2018-02-18T17:02:31.503Z,97346.02
2018-02-18T17:07:28.306Z,97338.61
2018-02-18T17:09:55.970Z,97337.60
2018-02-18T17:12:21.820Z,97337.08
2018-02-18T17:14:47.656Z,97339.88
2018-02-18T17:17:13.553Z,97346.75
2018-02-18T17:19:39.391Z,97350.70
2018-02-18T17:22:08.614Z,97355.13
2018-02-18T17:24:34.486Z,97351.53
2018-02-18T17:27:02.322Z,97354.32
2018-02-18T17:29:28.186Z,97346.25
2018-02-18T17:31:57.668Z,97347.06
2018-02-18T17:34:23.496Z,97353.44
2018-02-18T17:36:52.626Z,97347.31
2018-02-18T17:39:18.493Z,97340.28
2018-02-18T17:41:45.915Z,97344.91
2018-02-18T17:44:11.767Z,97345.49
2018-02-18T17:46:40.738Z,97350.94
2018-02-18T17:49:06.582Z,97346.95
2018-02-18T17:51:32.493Z,97349.00
2018-02-18T17:53:58.342Z,97342.21
2018-02-18T17:56:24.181Z,97341.28
2018-02-18T17:58:51.998Z,97339.98
2018-02-18T18:01:17.854Z,97337.48
2018-02-18T18:03:46.447Z,97333.72
2018-02-18T18:06:12.319Z,97332.05
2018-02-18T18:08:38.182Z,97331.13
2018-02-18T18:11:09.286Z,97327.20
2018-02-18T18:13:37.065Z,97336.62
2018-02-18T18:16:02.950Z,97327.14
2018-02-18T18:18:32.204Z,97333.20
2018-02-18T18:20:58.053Z,97330.50
2018-02-18T18:23:27.638Z,97330.06
2018-02-18T18:25:53.493Z,97324.39
2018-02-18T18:28:19.333Z,97322.66
2018-02-18T18:30:45.192Z,97318.98
2018-02-18T18:33:11.014Z,97310.61
2018-02-18T18:35:37.290Z,97314.16
2018-02-18T18:38:03.141Z,97311.09
2018-02-18T18:42:59.861Z,97311.87
2018-02-18T18:45:27.242Z,97305.88
2018-02-18T18:47:53.083Z,97309.30
2018-02-18T18:50:21.915Z,97305.13
2018-02-18T18:52:47.788Z,97306.81
2018-02-18T18:55:16.662Z,97306.26
2018-02-18T18:57:42.533Z,97313.10
2018-02-18T19:02:59.298Z,97311.83
2018-02-18T19:05:25.169Z,97310.37
2018-02-18T19:07:51.054Z,97303.34
2018-02-18T19:10:16.896Z,97294.66
2018-02-18T19:12:42.769Z,97286.78
2018-02-18T19:15:08.589Z,97271.69
2018-02-18T19:17:34.460Z,97271.70
2018-02-18T19:20:00.326Z,97265.86
2018-02-18T19:22:26.204Z,97265.14
2018-02-18T19:24:52.063Z,97265.55
2018-02-18T19:27:17.925Z,97257.33
2018-02-18T19:29:43.791Z,97258.81
2018-02-18T19:32:09.671Z,97265.61
2018-02-18T19:34:35.515Z,97269.23
2018-02-18T19:37:01.668Z,97266.63
2018-02-18T19:39:27.509Z,97256.78
2018-02-18T19:41:53.365Z,97256.00
2018-02-18T19:44:19.188Z,97253.23
2018-02-18T19:46:45.066Z,97251.16
2018-02-18T19:49:10.922Z,97248.37
2018-02-18T19:51:36.752Z,97250.81
2018-02-18T19:54:03.205Z,97257.77
2018-02-18T19:56:29.046Z,97253.64
2018-02-18T19:58:58.398Z,97248.10
2018-02-18T20:01:24.242Z,97251.23
2018-02-18T20:03:53.662Z,97248.27
2018-02-18T20:06:19.485Z,97241.91
2018-02-18T20:08:48.509Z,97241.15
2018-02-18T20:11:14.386Z,97234.52
2018-02-18T20:13:43.388Z,97233.84
2018-02-18T20:16:09.252Z,97223.34
2018-02-18T20:18:35.086Z,97226.65
2018-02-18T20:21:00.942Z,97220.11
2018-02-18T20:23:26.795Z,97219.75
2018-02-18T20:25:53.388Z,97220.14
2018-02-18T20:28:19.279Z,97210.27
2018-02-18T20:30:48.679Z,97207.55
2018-02-18T20:33:14.609Z,97200.08
2018-02-18T20:35:44.066Z,97198.78
2018-02-18T20:38:09.908Z,97194.14
2018-02-18T20:40:39.303Z,97189.93
2018-02-18T20:43:05.158Z,97187.66
2018-02-18T20:45:32.722Z,97182.22
2018-02-18T20:47:58.590Z,97182.77
2018-02-18T20:50:27.905Z,97178.08
2018-02-18T20:52:53.798Z,97174.55
2018-02-18T20:55:19.636Z,97179.89
2018-02-18T20:57:45.524Z,97165.44
2018-02-18T21:00:11.429Z,97164.27
2018-02-18T21:02:38.651Z,97172.43
2018-02-18T21:05:04.516Z,97172.06
2018-02-18T21:10:01.094Z,97170.82
2018-02-18T21:12:28.259Z,97167.73
2018-02-18T21:14:54.106Z,97171.08
2018-02-18T21:17:22.776Z,97168.39
2018-02-18T21:19:48.618Z,97169.00
2018-02-18T21:24:45.242Z,97177.84
2018-02-18T21:27:12.537Z,97181.28
2018-02-18T21:29:38.410Z,97175.34
2018-02-18T21:32:04.266Z,97176.98
2018-02-18T21:34:30.146Z,97175.55
2018-02-18T21:36:55.987Z,97169.92
2018-02-18T21:39:25.317Z,97171.36
2018-02-18T21:41:51.187Z,97166.98
2018-02-18T21:44:21.566Z,97167.70
2018-02-18T21:46:47.449Z,97169.78
2018-02-18T21:49:13.367Z,97171.44
2018-02-18T21:51:39.217Z,97166.27
2018-02-18T21:56:36.024Z,97162.80
2018-02-18T21:59:03.328Z,97166.13
2018-02-18T22:01:29.178Z,97164.46
2018-02-18T22:03:57.897Z,97162.61
2018-02-18T22:06:23.775Z,97158.66
2018-02-18T22:08:49.616Z,97151.91
2018-02-18T22:11:15.493Z,97145.97
2018-02-18T22:13:41.336Z,97150.58
2018-02-18T22:16:11.056Z,97147.68
2018-02-18T22:18:36.935Z,97143.58
2018-02-18T22:21:04.027Z,97142.78
2018-02-18T22:23:29.883Z,97140.61
2018-02-18T22:28:26.605Z,97142.98
2018-02-18T22:30:54.392Z,97140.72
2018-02-18T22:33:20.234Z,97143.67
2018-02-18T22:35:49.573Z,97147.99
2018-02-18T22:38:15.474Z,97140.04
2018-02-18T22:40:43.127Z,97137.72
2018-02-18T22:43:08.986Z,97142.03
2018-02-18T22:45:34.854Z,97136.38
2018-02-18T22:48:00.952Z,97137.52
2018-02-18T22:50:26.809Z,97134.97
2018-02-18T22:52:56.034Z,97133.55
2018-02-18T22:55:21.875Z,97128.97
2018-02-18T22:57:51.200Z,97131.75
2018-02-18T23:00:17.107Z,97131.81
2018-02-18T23:02:44.516Z,97134.40
2018-02-18T23:05:16.626Z,97137.64
2018-02-18T23:07:42.482Z,97138.44
2018-02-18T23:10:08.345Z,97142.67
2018-02-18T23:12:34.200Z,97136.34
2018-02-18T23:15:00.046Z,97133.06
2018-02-18T23:17:29.631Z,97125.17
2018-02-18T23:19:55.506Z,97126.86
2018-02-18T23:22:21.359Z,97115.83
2018-02-18T23:24:47.208Z,97119.77
2018-02-18T23:27:13.050Z,97118.78
2018-02-18T23:29:40.650Z,97110.97
2018-02-18T23:32:06.515Z,97114.37
2018-02-18T23:34:35.958Z,97104.37
2018-02-18T23:37:01.821Z,97108.09
2018-02-18T23:39:31.305Z,97108.47
2018-02-18T23:41:57.163Z,97107.21
2018-02-18T23:44:24.228Z,97109.76
2018-02-18T23:46:50.075Z,97112.67
2018-02-18T23:49:19.047Z,97107.13
2018-02-18T23:51:44.915Z,97108.87
2018-02-18T23:54:13.820Z,97109.76
2018-02-18T23:56:39.711Z,97108.81
2018-02-18T23:59:05.537Z,97099.88
